Terminal Aerodrome Forecast
Issued by NWS

Home | Current Version | Previous Version | Text Only | Print | Product List | Glossary Off
Versions: 1 2 3 4 5 6 7 8 9 10 11 12 13 14 15 16 17

000
FTUS43 KGRB 180936 AAA
TAFATW
TAF AMD
KATW 180936Z 1810/1906 35010KT P6SM SCT008 OVC035
      TEMPO 1810/1814 4SM -RA BR BKN008
     FM181400 35014G22KT P6SM SCT010 OVC018
     FM181800 35015G23KT P6SM BKN028
     FM190100 31014KT P6SM BKN035=

USA.gov is the U.S. government's official web portal to all federal, state and local government web resources and services.